Time;durP1;ratioP1;P1;durP2;ratioP2;P2;SDS_P1;SDS_P2;PMS_P1;PMS_P2;Temp;Humidity;BMP_temperature;BMP_pressure;BME280_temperature;BME280_humidity;BME280_pressure;Samples;Min_cycle;Max_cycle;Signal;HPM_P1;HPM_P2
2023/05/27 00:01:56;;;;;;;12.73;3.70;;;;;;;19.24;35.90;102762.66;16109712;19;131446;-47
2023/05/27 00:07:18;;;;;;;9.45;3.25;;;;;;;19.22;36.09;102768.44;16122150;19;128943;-46
2023/05/27 00:12:40;;;;;;;9.82;2.88;;;;;;;19.22;36.33;102756.44;16119020;19;131100;-46
2023/05/27 00:18:02;;;;;;;9.18;2.85;;;;;;;19.22;36.33;102753.69;16118326;19;131176;-46
2023/05/27 00:23:24;;;;;;;11.77;2.90;;;;;;;19.21;35.93;102757.50;16120025;19;131456;-45
2023/05/27 00:28:46;;;;;;;13.13;3.15;;;;;;;19.20;36.06;102756.63;16119121;19;129649;-47
2023/05/27 00:34:07;;;;;;;11.77;3.17;;;;;;;19.21;36.20;102768.59;16116789;19;129855;-46
2023/05/27 00:39:29;;;;;;;9.60;2.90;;;;;;;19.19;36.32;102748.53;16111812;19;130323;-43
2023/05/27 00:44:51;;;;;;;9.02;3.30;;;;;;;19.18;36.07;102749.59;16116459;19;129563;-46
2023/05/27 00:50:14;;;;;;;7.65;2.78;;;;;;;19.19;36.42;102748.53;16113517;19;129754;-46
2023/05/27 00:55:36;;;;;;;9.52;3.17;;;;;;;19.18;36.35;102752.38;16113219;19;128971;-44
2023/05/27 01:00:58;;;;;;;9.68;3.10;;;;;;;19.17;36.11;102747.88;16116389;19;130600;-46
2023/05/27 01:06:38;;;;;;;8.50;2.63;;;;;;;19.16;36.23;102740.63;16116512;19;129340;-46
2023/05/27 01:12:15;;;;;;;9.02;2.85;;;;;;;19.16;35.91;102735.91;16114658;19;130680;-46
2023/05/27 01:17:42;;;;;;;;;;;;;;;19.10;36.43;102728.41;16118688;19;131931;-45
2023/05/27 01:23:04;;;;;;;5.57;2.40;;;;;;;19.12;35.92;102728.19;16113323;19;131014;-44
2023/05/27 01:28:26;;;;;;;7.40;2.67;;;;;;;19.11;36.36;102726.50;16114663;19;130387;-42
2023/05/27 01:34:06;;;;;;;9.63;3.22;;;;;;;19.11;35.96;102719.03;16116421;19;129732;-46
2023/05/27 01:39:29;;;;;;;11.25;3.03;;;;;;;19.10;36.38;102713.69;16114208;19;128901;-42
2023/05/27 01:44:52;;;;;;;9.02;2.63;;;;;;;19.08;36.26;102703.63;16113639;19;132076;-46
2023/05/27 01:50:14;;;;;;;7.95;2.78;;;;;;;19.07;36.32;102707.50;16111875;19;131509;-45
2023/05/27 01:55:36;;;;;;;8.55;3.10;;;;;;;19.08;35.97;102709.19;16110012;19;131449;-43
2023/05/27 02:00:58;;;;;;;9.57;2.60;;;;;;;19.07;36.00;102703.84;16109171;19;131495;-45
2023/05/27 02:06:20;;;;;;;8.75;2.85;;;;;;;19.06;36.48;102694.69;16111993;19;130708;-46
2023/05/27 02:11:42;;;;;;;7.75;2.33;;;;;;;19.05;36.34;102692.97;16111497;19;130597;-44
2023/05/27 02:17:05;;;;;;;7.82;2.70;;;;;;;19.05;36.45;102695.75;16108120;19;131086;-44
2023/05/27 02:22:27;;;;;;;7.45;2.67;;;;;;;19.03;35.93;102700.66;16111375;19;129832;-45
2023/05/27 02:27:52;;;;;;;9.10;2.92;;;;;;;19.04;36.13;102701.47;16103758;19;130401;-43
2023/05/27 02:33:13;;;;;;;8.37;2.50;;;;;;;19.02;36.43;102704.47;16109046;19;129605;-46
2023/05/27 02:38:36;;;;;;;8.80;3.10;;;;;;;19.03;36.14;102706.19;16108020;19;128960;-44
2023/05/27 02:43:58;;;;;;;10.70;2.78;;;;;;;19.01;36.10;102701.91;16108809;19;131040;-45
2023/05/27 02:49:20;;;;;;;7.70;2.58;;;;;;;19.00;36.31;102701.03;16115964;19;130714;-45
2023/05/27 02:54:42;;;;;;;8.00;2.88;;;;;;;19.00;36.36;102701.03;16127153;19;129315;-43
2023/05/27 03:00:05;;;;;;;9.15;2.60;;;;;;;18.98;35.99;102697.63;16124447;19;129682;-43
2023/05/27 03:05:27;;;;;;;10.40;2.85;;;;;;;18.98;36.35;102694.00;16126750;19;130721;-43
2023/05/27 03:10:48;;;;;;;8.00;2.67;;;;;;;18.97;36.23;102695.91;16127299;19;130277;-43
2023/05/27 03:16:11;;;;;;;9.07;2.83;;;;;;;18.96;35.88;102704.44;16121666;19;131054;-41
2023/05/27 03:21:32;;;;;;;7.30;2.60;;;;;;;18.95;35.94;102702.72;16123266;19;130680;-42
2023/05/27 03:26:54;;;;;;;11.77;3.25;;;;;;;18.93;36.38;102705.72;16118836;19;129553;-42
2023/05/27 03:32:16;;;;;;;7.85;2.70;;;;;;;18.91;36.06;102707.84;16121907;19;129958;-43
2023/05/27 03:37:38;;;;;;;8.70;2.85;;;;;;;18.90;36.18;102706.13;16123673;19;131444;-42
2023/05/27 03:43:00;;;;;;;6.90;2.45;;;;;;;18.88;36.21;102697.16;16122828;19;130131;-44
2023/05/27 03:48:22;;;;;;;8.40;3.30;;;;;;;18.87;36.06;102695.44;16122277;19;130331;-45
2023/05/27 03:53:44;;;;;;;8.75;2.65;;;;;;;18.86;36.23;102690.94;16119970;19;130377;-45
2023/05/27 03:59:06;;;;;;;8.15;2.85;;;;;;;18.84;36.14;102685.59;16121508;19;130635;-44
2023/05/27 04:04:28;;;;;;;9.48;3.05;;;;;;;18.84;36.11;102681.97;16116098;19;129076;-44
2023/05/27 04:09:50;;;;;;;8.60;2.80;;;;;;;18.83;35.99;102683.06;16120303;19;130077;-49
2023/05/27 04:15:12;;;;;;;9.00;2.45;;;;;;;18.82;35.89;102681.34;16120070;19;129843;-43
2023/05/27 04:20:40;;;;;;;9.40;3.05;;;;;;;18.83;35.80;102688.59;16118890;19;129764;-44
2023/05/27 04:26:02;;;;;;;7.28;2.50;;;;;;;18.80;35.87;102697.31;16118697;19;129654;-45
2023/05/27 04:31:28;;;;;;;11.00;3.30;;;;;;;18.80;36.05;102683.47;16115923;19;129544;-43
2023/05/27 04:36:51;;;;;;;9.55;2.97;;;;;;;18.79;36.20;102681.75;16118592;19;130630;-48
2023/05/27 04:42:15;;;;;;;7.03;2.53;;;;;;;18.79;35.95;102681.75;16117256;19;130496;-45
2023/05/27 04:47:37;;;;;;;6.93;2.28;;;;;;;18.77;36.29;102685.56;16116816;19;129349;-42
2023/05/27 04:53:00;;;;;;;8.70;2.78;;;;;;;18.78;35.94;102680.88;16110049;19;129855;-43
2023/05/27 04:58:25;;;;;;;9.18;2.40;;;;;;;18.76;36.24;102672.75;16115608;19;130898;-43
2023/05/27 05:03:52;;;;;;;7.60;2.50;;;;;;;18.76;36.04;102664.44;16113344;19;129577;-43
2023/05/27 05:09:14;;;;;;;8.98;2.92;;;;;;;18.75;36.05;102659.97;16111886;19;130480;-42
2023/05/27 05:14:36;;;;;;;5.95;2.25;;;;;;;18.74;35.76;102652.69;16111730;19;129880;-45
2023/05/27 05:19:58;;;;;;;7.70;2.75;;;;;;;18.74;35.80;102649.94;16114402;19;129885;-47
2023/05/27 05:25:20;;;;;;;8.35;2.75;;;;;;;18.73;35.79;102651.00;16110204;19;130075;-44
2023/05/27 05:30:41;;;;;;;6.40;2.25;;;;;;;18.73;35.76;102645.44;16114429;19;131873;-42
2023/05/27 05:36:04;;;;;;;8.95;2.92;;;;;;;18.73;36.26;102650.16;16113446;19;129547;-47
2023/05/27 05:41:25;;;;;;;8.20;2.85;;;;;;;18.72;35.81;102649.28;16114238;19;130098;-48
2023/05/27 05:46:47;;;;;;;7.15;2.75;;;;;;;18.71;35.93;102644.78;16114658;19;129557;-42
2023/05/27 05:52:09;;;;;;;8.20;2.70;;;;;;;18.71;35.80;102643.94;16113570;19;129893;-43
2023/05/27 05:57:32;;;;;;;8.95;2.58;;;;;;;18.72;35.76;102649.28;16113448;19;129874;-45
2023/05/27 06:02:56;;;;;;;9.50;3.20;;;;;;;18.71;35.83;102650.34;16110670;19;129817;-45
2023/05/27 06:08:18;;;;;;;7.05;2.38;;;;;;;18.71;36.21;102647.56;16108809;19;130512;-44
2023/05/27 06:13:41;;;;;;;7.30;2.55;;;;;;;18.71;36.01;102646.72;16112105;19;131729;-43
2023/05/27 06:19:03;;;;;;;9.88;2.50;;;;;;;18.71;36.08;102647.56;16106757;19;130184;-42
2023/05/27 06:24:25;;;;;;;9.07;2.60;;;;;;;18.71;35.67;102646.72;16114901;19;134295;-42
2023/05/27 06:29:47;;;;;;;8.98;2.58;;;;;;;18.70;36.23;102633.91;16127457;19;130757;-43
2023/05/27 06:35:09;;;;;;;9.25;2.88;;;;;;;18.70;36.16;102629.25;16122463;19;129975;-43
2023/05/27 06:40:31;;;;;;;10.68;3.20;;;;;;;18.76;35.61;102625.63;16120585;19;129819;-42
2023/05/27 06:45:53;;;;;;;9.52;2.75;;;;;;;18.88;35.88;102620.38;16123293;19;130567;-43
2023/05/27 06:51:27;;;;;;;8.48;3.17;;;;;;;19.05;35.67;102629.19;16125494;19;129904;-40
2023/05/27 06:56:48;;;;;;;8.30;3.13;;;;;;;19.20;35.68;102623.47;16125994;19;130548;-42
2023/05/27 07:02:10;;;;;;;8.50;3.00;;;;;;;19.33;36.10;102606.00;16122502;19;130943;-42
2023/05/27 07:07:32;;;;;;;11.10;3.53;;;;;;;19.44;35.99;102600.94;16121550;19;130873;-47
2023/05/27 07:12:54;;;;;;;9.27;3.22;;;;;;;19.53;35.75;102597.72;16121660;19;129923;-41
2023/05/27 07:18:16;;;;;;;11.10;3.35;;;;;;;19.62;35.77;102615.03;16122779;19;129459;-40
2023/05/27 07:23:38;;;;;;;10.60;3.25;;;;;;;19.73;35.68;102598.78;16128515;19;129387;-44
2023/05/27 07:29:00;;;;;;;9.55;2.90;;;;;;;19.79;35.73;102595.19;16119748;19;130213;-41
2023/05/27 07:34:22;;;;;;;10.43;3.00;;;;;;;19.83;35.80;102600.09;16121881;19;130583;-47
2023/05/27 07:39:44;;;;;;;8.82;2.83;;;;;;;19.90;35.93;102594.53;16111263;19;131866;-43
2023/05/27 07:45:07;;;;;;;10.27;2.83;;;;;;;19.97;35.75;102591.75;16108654;19;130665;-44
2023/05/27 07:50:29;;;;;;;12.50;3.17;;;;;;;20.01;35.86;102579.16;16118456;19;130941;-43
2023/05/27 07:55:51;;;;;;;14.68;3.35;;;;;;;20.06;35.87;102581.31;16112470;19;130660;-43
2023/05/27 08:01:13;;;;;;;11.82;3.35;;;;;;;20.09;35.53;102572.53;16118069;19;130646;-42
2023/05/27 08:06:35;;;;;;;11.05;2.90;;;;;;;20.12;35.74;102558.22;16119032;19;129340;-47
2023/05/27 08:11:58;;;;;;;9.25;3.20;;;;;;;20.14;35.74;102562.47;16118464;19;129512;-44
2023/05/27 08:17:20;;;;;;;13.02;2.78;;;;;;;20.12;35.46;102552.66;16118681;19;130681;-46
2023/05/27 08:22:42;;;;;;;9.10;2.88;;;;;;;20.07;35.68;102549.66;16117917;19;129930;-45
2023/05/27 08:28:04;;;;;;;10.73;2.90;;;;;;;19.99;35.70;102537.72;16114956;19;129697;-45
2023/05/27 08:33:26;;;;;;;8.05;2.90;;;;;;;19.99;35.92;102540.50;16114919;19;129938;-43
2023/05/27 08:38:48;;;;;;;8.07;2.60;;;;;;;20.03;35.44;102531.72;16118562;19;130724;-49
2023/05/27 08:44:10;;;;;;;8.75;2.60;;;;;;;20.05;35.52;102537.94;16116453;19;129906;-45
2023/05/27 08:49:41;;;;;;;11.15;3.20;;;;;;;20.08;35.57;102535.56;16116024;19;129069;-50
2023/05/27 08:55:05;;;;;;;13.02;3.55;;;;;;;20.11;35.46;102521.25;16116417;19;130340;-47
2023/05/27 09:00:27;;;;;;;9.30;3.08;;;;;;;20.14;35.72;102512.44;16115357;19;129738;-44
2023/05/27 09:05:49;;;;;;;9.18;3.00;;;;;;;20.18;35.64;102504.56;16113999;19;130945;-42
2023/05/27 09:11:30;;;;;;;16.48;3.35;;;;;;;20.22;35.76;102480.78;16115160;19;130253;-46
2023/05/27 09:16:52;;;;;;;8.82;2.90;;;;;;;20.24;35.36;102495.31;16113205;19;129541;-43
2023/05/27 09:22:33;;;;;;;10.60;2.97;;;;;;;20.28;35.73;102479.06;16113742;19;129311;-43
2023/05/27 09:27:56;;;;;;;10.40;3.00;;;;;;;20.29;35.25;102478.00;16116794;19;129649;-44
2023/05/27 09:33:24;;;;;;;10.75;3.25;;;;;;;20.32;35.66;102479.47;16112710;19;129719;-44
2023/05/27 09:38:48;;;;;;;8.90;3.47;;;;;;;20.31;35.78;102473.06;16109422;19;130906;-44
2023/05/27 09:44:10;;;;;;;13.55;2.78;;;;;;;20.28;35.42;102466.03;16111477;19;131461;-43
2023/05/27 09:49:35;;;;;;;12.70;3.78;;;;;;;20.21;35.37;102458.78;16111987;19;129475;-43
2023/05/27 09:54:58;;;;;;;24.00;3.85;;;;;;;20.20;35.65;102454.31;16110851;19;129630;-45
2023/05/27 10:00:20;;;;;;;13.80;4.47;;;;;;;20.20;35.62;102444.03;16111443;19;129621;-46
2023/05/27 10:05:44;;;;;;;15.10;4.30;;;;;;;20.21;35.50;102434.63;16107553;19;130406;-44
2023/05/27 10:11:06;;;;;;;21.90;5.50;;;;;;;20.18;35.85;102426.75;16107677;19;129357;-46
2023/05/27 10:16:28;;;;;;;18.60;5.20;;;;;;;20.18;35.77;102412.84;16108973;19;130934;-43
2023/05/27 10:21:51;;;;;;;24.17;5.15;;;;;;;20.14;35.75;102417.97;16110354;19;129871;-44
2023/05/27 10:27:14;;;;;;;16.20;5.05;;;;;;;20.14;35.65;102417.13;16106628;19;130135;-45
2023/05/27 10:32:43;;;;;;;14.70;4.50;;;;;;;20.13;35.71;102410.72;16107262;19;129482;-49
2023/05/27 10:38:18;;;;;;;15.85;4.72;;;;;;;20.13;35.61;102393.22;16109476;19;129904;-44
2023/05/27 10:43:40;;;;;;;14.85;4.47;;;;;;;20.10;35.42;102401.97;16108241;19;130081;-43
2023/05/27 10:49:25;;;;;;;20.17;4.40;;;;;;;20.11;35.34;102379.56;16106299;19;130444;-49
2023/05/27 10:54:48;;;;;;;21.05;5.47;;;;;;;20.09;35.32;102370.56;16106308;19;129900;-45
2023/05/27 11:00:16;;;;;;;18.15;4.30;;;;;;;20.12;35.19;102359.00;16107153;19;130415;-43
2023/05/27 11:05:38;;;;;;;21.48;4.95;;;;;;;20.12;35.56;102347.03;16106891;19;130564;-46
2023/05/27 11:11:03;;;;;;;21.20;4.13;;;;;;;20.11;36.19;102345.34;16112775;19;131159;-43
2023/05/27 11:16:25;;;;;;;15.80;5.00;;;;;;;20.12;36.18;102345.09;16122231;19;133462;-43
2023/05/27 11:21:50;;;;;;;22.52;4.90;;;;;;;20.12;35.90;102330.38;16121289;19;130144;-44
2023/05/27 11:27:13;;;;;;;21.58;5.18;;;;;;;20.10;35.75;102332.53;16119650;19;129851;-45
2023/05/27 11:32:36;;;;;;;15.65;4.32;;;;;;;20.11;35.67;102323.97;16121852;19;130982;-46
2023/05/27 11:37:59;;;;;;;18.75;4.47;;;;;;;20.11;35.31;102323.13;16124536;19;129668;-44
2023/05/27 11:43:21;;;;;;;16.02;4.68;;;;;;;20.11;35.52;102312.88;16122925;19;129446;-44
2023/05/27 11:48:43;;;;;;;13.93;4.03;;;;;;;20.12;35.49;102302.59;16118697;19;129334;-46
2023/05/27 11:54:06;;;;;;;14.63;4.75;;;;;;;20.12;34.96;102295.09;16120103;19;129442;-45
2023/05/27 11:59:28;;;;;;;14.98;4.72;;;;;;;20.14;34.82;102289.34;16118660;19;129881;-45
2023/05/27 12:04:50;;;;;;;14.02;4.38;;;;;;;20.16;34.93;102286.31;16122141;19;131625;-46
2023/05/27 12:10:12;;;;;;;19.42;4.85;;;;;;;20.16;34.62;102287.19;16119355;19;129820;-43
2023/05/27 12:15:34;;;;;;;15.25;4.43;;;;;;;20.17;34.55;102266.66;16121899;19;130006;-47
2023/05/27 12:20:56;;;;;;;13.50;4.15;;;;;;;20.18;34.67;102259.16;16115133;19;130147;-42
2023/05/27 12:26:18;;;;;;;15.40;3.95;;;;;;;20.18;34.66;102262.81;16117108;19;128907;-44
2023/05/27 12:31:40;;;;;;;15.05;4.13;;;;;;;20.20;34.68;102252.31;16116979;19;130675;-44
2023/05/27 12:37:02;;;;;;;16.17;4.43;;;;;;;20.19;34.24;102239.47;16115199;19;130420;-42
2023/05/27 12:42:24;;;;;;;15.68;4.40;;;;;;;20.21;34.50;102237.34;16114679;19;129058;-43
2023/05/27 12:47:46;;;;;;;15.95;4.32;;;;;;;20.18;34.08;102226.69;16114131;19;130433;-46
2023/05/27 12:53:08;;;;;;;18.45;4.55;;;;;;;20.21;34.42;102222.59;16113283;19;132104;-44
2023/05/27 12:58:30;;;;;;;15.90;4.10;;;;;;;20.21;33.86;102217.88;16114527;19;129607;-45
2023/05/27 13:03:52;;;;;;;12.02;3.65;;;;;;;20.19;33.55;102210.84;16116256;19;129517;-43
2023/05/27 13:09:14;;;;;;;17.63;4.57;;;;;;;20.18;33.82;102207.25;16112839;19;130673;-42
2023/05/27 13:14:36;;;;;;;10.73;3.50;;;;;;;20.18;33.70;102196.13;16114335;19;130478;-43
2023/05/27 13:19:58;;;;;;;16.55;4.05;;;;;;;20.21;33.61;102197.59;16113731;19;130027;-40
2023/05/27 13:25:20;;;;;;;12.93;3.30;;;;;;;20.18;33.67;102198.91;16112002;19;129579;-43
2023/05/27 13:30:42;;;;;;;11.20;3.60;;;;;;;20.17;33.85;102197.19;16114658;19;130575;-45
2023/05/27 13:36:04;;;;;;;13.75;3.55;;;;;;;20.20;33.65;102173.66;16110924;19;130235;-43
2023/05/27 13:41:26;;;;;;;12.75;4.18;;;;;;;20.20;33.82;102174.50;16110983;19;130959;-46
2023/05/27 13:46:49;;;;;;;12.00;3.80;;;;;;;20.20;33.56;102155.03;16108746;19;130711;-46
2023/05/27 13:52:11;;;;;;;15.20;4.25;;;;;;;20.20;33.67;102159.78;16108944;19;130300;-42
2023/05/27 13:57:33;;;;;;;11.30;4.15;;;;;;;20.21;33.34;102148.41;16112661;19;131521;-42
2023/05/27 14:02:57;;;;;;;14.35;4.43;;;;;;;20.22;33.04;102152.06;16107996;19;129561;-41
2023/05/27 14:08:20;;;;;;;17.67;4.72;;;;;;;20.26;32.83;102140.25;16111340;19;129434;-43
2023/05/27 14:13:41;;;;;;;14.68;4.25;;;;;;;20.29;33.14;102137.03;16104635;19;131045;-43
2023/05/27 14:19:03;;;;;;;19.40;4.43;;;;;;;20.28;33.20;102123.34;16107393;19;129352;-41
2023/05/27 14:24:25;;;;;;;17.63;4.22;;;;;;;20.31;32.72;102119.28;16110857;19;130987;-41
2023/05/27 14:29:47;;;;;;;11.60;3.83;;;;;;;20.34;32.64;102113.25;16108187;19;130177;-41
2023/05/27 14:35:09;;;;;;;16.83;4.15;;;;;;;20.32;32.58;102101.50;16109753;19;129493;-47
2023/05/27 14:40:32;;;;;;;19.17;4.18;;;;;;;20.29;32.76;102109.25;16109108;19;130555;-43
2023/05/27 14:45:54;;;;;;;14.00;4.30;;;;;;;20.29;32.61;102103.69;16115987;19;130618;-41
2023/05/27 14:51:16;;;;;;;14.00;3.92;;;;;;;20.24;32.87;102089.63;16121559;19;130484;-42
2023/05/27 14:56:38;;;;;;;13.07;3.78;;;;;;;20.26;32.39;102086.59;16123071;19;130296;-43
2023/05/27 15:02:00;;;;;;;17.25;4.55;;;;;;;20.26;32.76;102092.16;16119206;19;130435;-42
2023/05/27 15:07:22;;;;;;;17.63;4.07;;;;;;;20.28;32.86;102084.44;16117786;19;130547;-41
2023/05/27 15:12:46;;;;;;;15.43;4.50;;;;;;;20.32;32.23;102091.25;16118319;19;130022;-44
2023/05/27 15:18:09;;;;;;;19.85;4.43;;;;;;;20.32;32.16;102082.91;16121185;19;129448;-43
2023/05/27 15:23:31;;;;;;;13.80;4.07;;;;;;;20.31;32.72;102083.16;16123885;19;129693;-41
2023/05/27 15:28:53;;;;;;;16.75;4.25;;;;;;;20.32;32.57;102082.06;16114456;19;130101;-43
2023/05/27 15:34:15;;;;;;;16.58;4.47;;;;;;;20.31;32.47;102077.59;16118577;19;130309;-46
2023/05/27 15:39:37;;;;;;;13.50;3.28;;;;;;;20.31;32.63;102078.44;16121470;19;129627;-40
2023/05/27 15:44:59;;;;;;;12.55;4.00;;;;;;;20.31;32.51;102077.59;16116940;19;131449;-43
2023/05/27 15:50:21;;;;;;;11.15;3.85;;;;;;;20.29;32.54;102070.34;16121443;19;130006;-44
2023/05/27 15:55:43;;;;;;;12.57;3.22;;;;;;;20.33;32.73;102070.72;16119817;19;129178;-41
2023/05/27 16:01:06;;;;;;;16.15;4.20;;;;;;;20.35;32.20;102063.00;16117666;19;133574;-43
2023/05/27 16:06:28;;;;;;;17.08;3.65;;;;;;;20.37;32.22;102058.03;16119193;19;130203;-40
2023/05/27 16:11:50;;;;;;;11.50;3.53;;;;;;;20.36;31.83;102049.94;16120249;19;134243;-42
2023/05/27 16:17:12;;;;;;;14.25;4.15;;;;;;;20.37;32.05;102051.66;16115035;19;129616;-44
2023/05/27 16:22:34;;;;;;;10.90;3.10;;;;;;;20.37;31.31;102037.75;16116957;19;129380;-42
2023/05/27 16:27:56;;;;;;;12.48;3.47;;;;;;;20.38;31.16;102039.47;16116887;19;129257;-43
2023/05/27 16:33:18;;;;;;;12.82;3.65;;;;;;;20.39;31.07;102032.81;16114750;19;129350;-41
2023/05/27 16:38:40;;;;;;;10.63;2.80;;;;;;;20.39;30.79;102030.03;16116045;19;130091;-46
2023/05/27 16:44:02;;;;;;;12.63;3.83;;;;;;;20.38;30.75;102018.06;16117243;19;130884;-44
2023/05/27 16:49:25;;;;;;;9.88;3.40;;;;;;;20.39;30.31;102024.47;16112843;19;131262;-43
2023/05/27 16:54:47;;;;;;;9.60;3.50;;;;;;;20.40;30.48;102015.91;16116134;19;130249;-41
2023/05/27 17:00:09;;;;;;;14.18;3.08;;;;;;;20.42;30.45;102010.97;16116931;19;131384;-42
2023/05/27 17:05:31;;;;;;;11.32;3.03;;;;;;;20.43;30.92;102003.50;16113289;19;130367;-41
2023/05/27 17:10:53;;;;;;;15.30;3.47;;;;;;;20.44;31.07;102010.72;16113936;19;131836;-41
2023/05/27 17:16:16;;;;;;;12.43;3.60;;;;;;;20.44;31.24;102000.47;16114103;19;129800;-44
2023/05/27 17:21:38;;;;;;;13.27;3.42;;;;;;;20.46;31.83;101997.44;16116216;19;129675;-45
2023/05/27 17:27:00;;;;;;;10.60;3.13;;;;;;;20.49;31.73;101999.75;16109598;19;130430;-44
2023/05/27 17:32:22;;;;;;;8.32;3.17;;;;;;;20.51;31.97;101994.81;16108558;19;131362;-45
2023/05/27 17:37:44;;;;;;;14.38;2.80;;;;;;;20.55;32.09;101998.84;16111933;19;129773;-46
2023/05/27 17:43:06;;;;;;;9.07;2.92;;;;;;;20.58;32.29;101995.56;16112933;19;129819;-42
2023/05/27 17:48:28;;;;;;;13.98;3.00;;;;;;;20.62;32.48;102000.69;16107453;19;130030;-43
2023/05/27 17:53:52;;;;;;;11.13;3.33;;;;;;;20.62;32.26;101995.94;16109787;19;130980;-44
2023/05/27 17:59:14;;;;;;;7.97;2.55;;;;;;;20.62;32.18;101995.94;16106962;19;130503;-42
2023/05/27 18:04:36;;;;;;;9.20;3.03;;;;;;;20.62;32.23;101995.13;16107060;19;130640;-42
2023/05/27 18:09:58;;;;;;;11.93;2.63;;;;;;;20.62;32.87;101995.13;16107632;19;130637;-43
2023/05/27 18:15:19;;;;;;;12.05;3.10;;;;;;;20.60;33.08;101984.25;16107377;19;130043;-47
2023/05/27 18:20:41;;;;;;;10.02;3.22;;;;;;;20.58;32.89;101990.00;16114264;19;129626;-43
2023/05/27 18:26:03;;;;;;;10.82;3.30;;;;;;;20.54;33.17;101994.38;16121690;19;129637;-41
2023/05/27 18:31:25;;;;;;;11.18;3.15;;;;;;;20.51;33.45;101993.97;16125775;19;129341;-42
2023/05/27 18:36:48;;;;;;;11.07;3.17;;;;;;;20.47;33.76;101999.13;16125910;19;130126;-40
2023/05/27 18:42:10;;;;;;;10.75;2.88;;;;;;;20.43;33.70;101992.38;16121040;19;133113;-39
2023/05/27 18:47:32;;;;;;;9.90;2.75;;;;;;;20.41;33.64;102000.94;16121226;19;129871;-40
2023/05/27 18:52:54;;;;;;;12.38;3.33;;;;;;;20.38;34.07;101995.81;16121540;19;129743;-39
2023/05/27 18:58:16;;;;;;;24.63;3.83;;;;;;;20.37;34.73;101998.84;16122805;19;129618;-40
2023/05/27 19:03:38;;;;;;;16.70;3.25;;;;;;;20.36;35.43;102008.25;16119298;19;131969;-39
2023/05/27 19:09:00;;;;;;;19.23;3.97;;;;;;;20.33;35.73;101998.47;16121392;19;131527;-41
2023/05/27 19:14:22;;;;;;;38.17;4.57;;;;;;;20.33;36.16;102008.72;16123039;19;131536;-39
2023/05/27 19:19:45;;;;;;;25.98;3.67;;;;;;;20.32;36.28;101999.53;16121064;19;129638;-39
2023/05/27 19:25:07;;;;;;;25.42;4.60;;;;;;;20.32;36.32;102007.88;16124389;19;129663;-40
2023/05/27 19:30:29;;;;;;;11.80;3.58;;;;;;;20.31;36.69;102006.19;16121093;19;129808;-39
2023/05/27 19:35:51;;;;;;;14.48;3.88;;;;;;;20.28;36.80;102004.72;16120541;19;130289;-40
2023/05/27 19:41:13;;;;;;;13.95;3.78;;;;;;;20.29;37.20;101998.09;16123826;19;129244;-40
2023/05/27 19:46:35;;;;;;;26.25;3.60;;;;;;;20.27;37.40;102011.34;16120711;19;130493;-42
2023/05/27 19:51:58;;;;;;;22.80;4.22;;;;;;;20.26;37.55;102009.66;16121590;19;129891;-46
2023/05/27 19:57:20;;;;;;;14.95;4.38;;;;;;;20.24;37.22;102020.16;16116996;19;131332;-43
2023/05/27 20:02:42;;;;;;;16.55;3.95;;;;;;;20.23;37.48;102015.66;16113446;19;129476;-41
2023/05/27 20:08:04;;;;;;;15.63;3.92;;;;;;;20.22;37.63;102019.53;16114153;19;130170;-43
2023/05/27 20:13:26;;;;;;;13.38;3.58;;;;;;;20.20;38.09;102021.69;16119704;19;129335;-44
2023/05/27 20:18:48;;;;;;;11.95;3.22;;;;;;;20.20;38.13;102021.69;16118787;19;132145;-43
2023/05/27 20:24:10;;;;;;;14.63;4.07;;;;;;;20.19;38.36;102028.31;16117001;19;133696;-43
2023/05/27 20:29:32;;;;;;;19.92;4.43;;;;;;;20.20;38.52;102029.19;16118336;19;129300;-46
2023/05/27 20:34:54;;;;;;;14.52;3.65;;;;;;;20.19;38.94;102019.13;16117056;19;131014;-41
2023/05/27 20:40:17;;;;;;;18.58;3.60;;;;;;;20.19;39.06;102014.41;16113072;19;129436;-46
2023/05/27 20:45:39;;;;;;;12.57;3.30;;;;;;;20.18;39.25;102021.09;16107766;19;130072;-46
2023/05/27 20:51:01;;;;;;;10.32;3.70;;;;;;;20.17;39.22;102019.38;16116047;19;129682;-43
2023/05/27 20:56:29;;;;;;;10.00;3.70;;;;;;;20.18;39.67;102012.75;16110552;19;129269;-45
2023/05/27 21:01:51;;;;;;;13.95;3.67;;;;;;;20.17;39.67;102018.50;16115482;19;130275;-42
2023/05/27 21:07:13;;;;;;;11.65;3.53;;;;;;;20.16;39.83;102020.47;16115114;19;131544;-41
2023/05/27 21:12:35;;;;;;;9.60;3.38;;;;;;;20.15;39.24;102013.19;16116802;19;129406;-43
2023/05/27 21:17:57;;;;;;;9.52;3.47;;;;;;;20.13;39.06;102013.41;16110362;19;129908;-44
2023/05/27 21:23:19;;;;;;;12.05;3.40;;;;;;;20.12;39.06;102008.94;16114737;19;129427;-42
2023/05/27 21:28:42;;;;;;;13.88;3.30;;;;;;;20.11;38.99;102007.25;16115828;19;130155;-42
2023/05/27 21:34:04;;;;;;;13.27;3.50;;;;;;;20.11;39.28;102011.94;16112704;19;129755;-43
2023/05/27 21:39:29;;;;;;;11.30;3.58;;;;;;;20.11;39.42;102009.19;16113027;19;129606;-46
2023/05/27 21:44:51;;;;;;;13.52;3.40;;;;;;;20.08;39.74;102007.72;16110131;19;129197;-46
2023/05/27 21:50:16;;;;;;;18.65;4.10;;;;;;;20.07;39.42;102005.16;16111327;19;130345;-43
2023/05/27 21:55:39;;;;;;;13.77;3.30;;;;;;;20.04;39.31;102006.47;16106477;19;130476;-43
2023/05/27 22:01:01;;;;;;;11.98;3.60;;;;;;;20.01;38.94;102006.09;16109145;19;131074;-44
2023/05/27 22:06:26;;;;;;;7.75;3.08;;;;;;;19.98;39.02;101997.09;16109138;19;130475;-46
2023/05/27 22:11:48;;;;;;;13.70;3.72;;;;;;;19.95;38.84;101991.16;16110285;19;131621;-46
2023/05/27 22:17:10;;;;;;;9.55;3.28;;;;;;;19.94;38.62;101995.00;16113641;19;132051;-47
2023/05/27 22:22:32;;;;;;;9.77;3.58;;;;;;;19.89;38.46;101987.38;16108903;19;129463;-46
2023/05/27 22:27:54;;;;;;;12.93;4.00;;;;;;;19.88;38.58;101988.44;16110643;19;130458;-42
2023/05/27 22:33:16;;;;;;;6.50;3.00;;;;;;;19.86;38.84;101993.38;16111691;19;130197;-46
2023/05/27 22:38:38;;;;;;;10.98;3.70;;;;;;;19.85;38.67;101994.44;16117181;19;129654;-43
2023/05/27 22:44:00;;;;;;;10.80;3.53;;;;;;;19.83;38.49;101997.47;16107584;19;130750;-46
2023/05/27 22:49:22;;;;;;;13.95;4.25;;;;;;;19.82;38.65;101992.13;16110220;19;130391;-47
2023/05/27 22:54:44;;;;;;;8.20;3.28;;;;;;;19.80;38.55;101994.31;16110972;19;131010;-45
2023/05/27 23:00:06;;;;;;;9.50;3.42;;;;;;;19.79;38.08;101987.03;16111858;19;129837;-45
2023/05/27 23:05:28;;;;;;;11.15;4.25;;;;;;;19.78;38.37;101985.34;16112310;19;130112;-47
2023/05/27 23:10:51;;;;;;;9.13;3.72;;;;;;;19.75;38.41;101975.56;16124728;19;132222;-44
2023/05/27 23:16:12;;;;;;;7.40;3.45;;;;;;;19.76;38.05;101976.38;16121508;19;131170;-46
2023/05/27 23:21:35;;;;;;;8.10;3.75;;;;;;;19.76;37.91;101976.38;16121576;19;130087;-46
2023/05/27 23:26:57;;;;;;;9.77;3.50;;;;;;;19.74;38.34;101971.06;16123098;19;130291;-42
2023/05/27 23:32:20;;;;;;;10.25;3.83;;;;;;;19.74;38.12;101961.88;16118137;19;130729;-44
2023/05/27 23:37:43;;;;;;;10.32;3.72;;;;;;;19.73;37.86;101966.59;16127283;19;131261;-45
2023/05/27 23:43:05;;;;;;;8.68;4.20;;;;;;;19.72;37.88;101952.94;16125822;19;129564;-43
2023/05/27 23:48:27;;;;;;;11.88;4.13;;;;;;;19.71;37.88;101956.78;16124396;19;129731;-48
2023/05/27 23:53:49;;;;;;;12.35;4.22;;;;;;;19.71;38.13;101959.56;16119576;19;129917;-51
2023/05/27 23:59:11;;;;;;;8.95;3.92;;;;;;;19.69;38.13;101951.47;16117908;19;130231;-49
